createdAt,value
2016-03-01T00:00:29.060Z,22.5
2016-03-01T00:01:28.343Z,22.5
2016-03-01T00:02:27.627Z,22.5
2016-03-01T00:03:27.036Z,22.5
2016-03-01T00:04:26.210Z,22.5
2016-03-01T00:05:25.542Z,22.5
2016-03-01T00:06:26.560Z,22.5
2016-03-01T00:07:26.093Z,22.5
2016-03-01T00:08:25.643Z,22.5
2016-03-01T00:09:25.162Z,22.5
2016-03-01T00:10:24.711Z,22.5
2016-03-01T00:11:24.245Z,22.5
2016-03-01T00:12:23.904Z,22.5
2016-03-01T00:13:23.329Z,22.4
2016-03-01T00:14:22.862Z,22.4
2016-03-01T00:15:22.475Z,22.4
2016-03-01T00:16:23.461Z,22.4
2016-03-01T00:17:23.121Z,22.4
2016-03-01T00:18:22.545Z,22.4
2016-03-01T00:19:22.095Z,22.4
2016-03-01T00:20:21.628Z,22.4
2016-03-01T00:21:21.288Z,22.4
2016-03-01T00:22:20.822Z,22.4
2016-03-01T00:23:20.247Z,22.4
2016-03-01T00:24:19.796Z,22.4
2016-03-01T00:25:19.392Z,22.4
2016-03-01T00:26:20.395Z,22.4
2016-03-01T00:27:20.038Z,22.3
2016-03-01T00:28:19.619Z,22.4
2016-03-01T00:29:19.027Z,22.4
2016-03-01T00:30:18.549Z,22.3
2016-03-01T00:31:17.942Z,22.3
2016-03-01T00:32:17.116Z,22.3
2016-03-01T00:33:16.525Z,22.3
2016-03-01T00:34:15.810Z,22.3
2016-03-01T00:35:15.047Z,22.3
2016-03-01T00:36:16.050Z,22.3
2016-03-01T00:37:15.333Z,22.3
2016-03-01T00:38:14.618Z,22.3
2016-03-01T00:39:13.901Z,22.3
2016-03-01T00:40:13.201Z,22.3
2016-03-01T00:41:12.501Z,22.3
2016-03-01T00:42:11.769Z,22.3
2016-03-01T00:43:11.052Z,22.3
2016-03-01T00:44:10.353Z,22.3
2016-03-01T00:45:09.683Z,22.3
2016-03-01T00:46:10.702Z,22.3
2016-03-01T00:47:10.110Z,22.3
2016-03-01T00:48:09.270Z,22.3
2016-03-01T00:49:08.553Z,22.3
2016-03-01T00:50:07.837Z,22.3
2016-03-01T00:51:07.121Z,22.3
2016-03-01T00:52:06.422Z,22.3
2016-03-01T00:53:05.705Z,22.2
2016-03-01T00:54:04.990Z,22.3
2016-03-01T00:55:04.336Z,22.3
2016-03-01T00:56:05.338Z,22.3
2016-03-01T00:57:04.623Z,22.3
2016-03-01T00:58:03.907Z,22.3
2016-03-01T00:59:03.457Z,22.3
2016-03-01T01:00:03.100Z,22.3
2016-03-01T01:01:02.274Z,22.2
2016-03-01T01:02:01.558Z,22.2
2016-03-01T01:03:00.968Z,22.3
2016-03-01T01:04:00.252Z,22.2
2016-03-01T01:04:59.488Z,22.3
2016-03-01T01:06:00.476Z,22.3
2016-03-01T01:06:59.775Z,22.3
2016-03-01T01:07:59.059Z,22.2
2016-03-01T01:08:58.343Z,22.3
2016-03-01T01:09:57.627Z,22.2
2016-03-01T01:10:56.911Z,22.2
2016-03-01T01:11:56.195Z,22.2
2016-03-01T01:12:55.494Z,22.2
2016-03-01T01:13:55.044Z,22.2
2016-03-01T01:14:54.624Z,22.2
2016-03-01T01:15:55.642Z,22.2
2016-03-01T01:16:55.286Z,22.2
2016-03-01T01:17:54.867Z,22.2
2016-03-01T01:18:54.260Z,22.2
2016-03-01T01:19:53.794Z,22.2
2016-03-01T01:20:53.327Z,22.2
2016-03-01T01:21:52.878Z,22.2
2016-03-01T01:22:52.412Z,22.2
2016-03-01T01:23:51.961Z,22.2
2016-03-01T01:24:51.558Z,22.2
2016-03-01T01:25:52.560Z,22.2
2016-03-01T01:26:52.110Z,22.2
2016-03-01T01:27:51.754Z,22.2
2016-03-01T01:28:51.318Z,22.2
2016-03-01T01:29:50.712Z,22.2
2016-03-01T01:30:50.386Z,22.2
2016-03-01T01:31:49.795Z,22.2
2016-03-01T01:32:49.329Z,22.2
2016-03-01T01:33:48.879Z,22.2
2016-03-01T01:34:48.585Z,22.2
2016-03-01T01:35:49.478Z,22.2
2016-03-01T01:36:49.012Z,22.2
2016-03-01T01:37:48.561Z,22.2
2016-03-01T01:38:48.112Z,22.2
2016-03-01T01:39:47.754Z,22.2
2016-03-01T01:40:47.289Z,22.2
2016-03-01T01:41:46.729Z,22.2
2016-03-01T01:42:46.262Z,22.2
2016-03-01T01:43:45.797Z,22.2
2016-03-01T01:44:45.392Z,22.2
2016-03-01T01:45:46.395Z,22.2
2016-03-01T01:46:45.945Z,22.2
2016-03-01T01:47:45.479Z,22.2
2016-03-01T01:48:45.138Z,22.2
2016-03-01T01:49:44.703Z,22.2
2016-03-01T01:50:44.096Z,22.2
2016-03-01T01:51:43.646Z,22.2
2016-03-01T01:52:43.305Z,22.2
2016-03-01T01:53:42.730Z,22.2
2016-03-01T01:54:42.326Z,22.2
2016-03-01T01:55:43.329Z,22.2
2016-03-01T01:56:42.862Z,22.2
2016-03-01T01:57:42.397Z,22.2
2016-03-01T01:58:41.946Z,22.2
2016-03-01T01:59:41.605Z,22.2
2016-03-01T02:00:41.029Z,22.2
2016-03-01T02:01:40.563Z,22.2
2016-03-01T02:02:40.113Z,22.1
2016-03-01T02:03:39.647Z,22.1
2016-03-01T02:04:39.243Z,22.2
2016-03-01T02:05:40.246Z,22.1
2016-03-01T02:06:39.780Z,22.2
2016-03-01T02:07:39.315Z,22.2
2016-03-01T02:08:38.864Z,22.1
2016-03-01T02:09:38.398Z,22.2
2016-03-01T02:10:37.931Z,22.2
2016-03-01T02:11:37.606Z,22.2
2016-03-01T02:12:37.156Z,22.1
2016-03-01T02:13:36.674Z,22.2
2016-03-01T02:14:36.161Z,22.2
2016-03-01T02:15:37.273Z,22.2
2016-03-01T02:16:36.822Z,22.1
2016-03-01T02:17:36.231Z,22.1
2016-03-01T02:18:35.781Z,22.1
2016-03-01T02:19:35.314Z,22.2
2016-03-01T02:20:35.029Z,22.1
2016-03-01T02:21:34.565Z,22.2
2016-03-01T02:22:33.927Z,22.1
2016-03-01T02:23:33.666Z,22.1
2016-03-01T02:24:33.102Z,22.2
2016-03-01T02:25:34.073Z,22.2
2016-03-01T02:26:33.623Z,22.1
2016-03-01T02:27:33.157Z,22.1
2016-03-01T02:28:32.691Z,22.1
2016-03-01T02:29:32.350Z,22.1
2016-03-01T02:30:31.775Z,22.1
2016-03-01T02:31:31.308Z,22.1
2016-03-01T02:32:30.968Z,22.1
2016-03-01T02:33:30.423Z,22.1
2016-03-01T02:34:30.004Z,22.1
2016-03-01T02:35:31.116Z,22.1
2016-03-01T02:36:30.524Z,22.1
2016-03-01T02:37:30.074Z,22.1
2016-03-01T02:38:29.608Z,22.1
2016-03-01T02:39:29.408Z,22.1
2016-03-01T02:40:29.207Z,22.1
2016-03-01T02:41:29.117Z,22.1
2016-03-01T02:42:28.541Z,22.1
2016-03-01T02:43:28.325Z,22.1
2016-03-01T02:44:27.937Z,22.1
2016-03-01T02:45:28.923Z,22.1
2016-03-01T02:46:28.723Z,22.1
2016-03-01T02:47:28.523Z,22.1
2016-03-01T02:48:28.323Z,22.1
2016-03-01T02:49:28.106Z,22.1
2016-03-01T02:50:27.906Z,22.1
2016-03-01T02:51:27.831Z,22.1
2016-03-01T02:52:27.489Z,22.1
2016-03-01T02:53:27.289Z,22.1
2016-03-01T02:54:27.136Z,22.1
2016-03-01T02:55:28.138Z,22.1
2016-03-01T02:56:27.938Z,22.1
2016-03-01T02:57:27.847Z,22.1
2016-03-01T02:58:27.522Z,22.1
2016-03-01T02:59:27.305Z,22.1
2016-03-01T03:00:27.121Z,22.1
2016-03-01T03:01:26.935Z,22.1
2016-03-01T03:02:26.688Z,22.1
2016-03-01T03:03:26.488Z,22.1
2016-03-01T03:04:26.335Z,22.1
2016-03-01T03:05:27.337Z,22.1
2016-03-01T03:06:27.121Z,22.1
2016-03-01T03:07:26.921Z,22.1
2016-03-01T03:08:26.721Z,22.1
2016-03-01T03:09:26.613Z,22.1
2016-03-01T03:10:26.304Z,22.1
2016-03-01T03:11:26.087Z,22.1
2016-03-01T03:12:25.887Z,22.1
2016-03-01T03:13:25.812Z,22.1
2016-03-01T03:14:25.548Z,22.1
2016-03-01T03:15:26.645Z,22.1
2016-03-01T03:16:26.351Z,22.1
2016-03-01T03:17:26.244Z,22.1
2016-03-01T03:18:25.919Z,22.1
2016-03-01T03:19:25.719Z,22.1
2016-03-01T03:20:25.517Z,22.1
2016-03-01T03:21:25.286Z,22.1
2016-03-01T03:22:25.102Z,22.1
2016-03-01T03:23:24.886Z,22.1
2016-03-01T03:24:24.841Z,22.1
2016-03-01T03:25:25.861Z,22.1
2016-03-01T03:26:25.534Z,22.1
2016-03-01T03:27:25.334Z,22.1
2016-03-01T03:28:25.368Z,22.1
2016-03-01T03:29:25.167Z,22.1
2016-03-01T03:30:25.341Z,22.1
2016-03-01T03:31:25.266Z,22.1
2016-03-01T03:32:25.316Z,22.1
2016-03-01T03:33:25.366Z,22.1
2016-03-01T03:34:25.462Z,22.1
2016-03-01T03:35:26.605Z,22.1
2016-03-01T03:36:26.640Z,22.1
2016-03-01T03:37:26.563Z,22.1
2016-03-01T03:38:26.614Z,22.1
2016-03-01T03:39:26.663Z,22.1
2016-03-01T03:40:26.822Z,22.1
2016-03-01T03:41:26.871Z,22.1
2016-03-01T03:42:26.796Z,22.1
2016-03-01T03:43:26.846Z,22.1
2016-03-01T03:44:26.958Z,22.1
2016-03-01T03:45:28.070Z,22.1
2016-03-01T03:46:27.995Z,22.1
2016-03-01T03:47:28.044Z,22.1
2016-03-01T03:48:28.093Z,22.1
2016-03-01T03:49:28.127Z,22.1
2016-03-01T03:50:28.178Z,22.1
2016-03-01T03:51:28.351Z,22.1
2016-03-01T03:52:28.401Z,22.1
2016-03-01T03:53:28.435Z,22.1
2016-03-01T03:54:28.547Z,22.1
2016-03-01T03:55:29.424Z,22.1
2016-03-01T03:56:29.475Z,22.1
2016-03-01T03:57:29.650Z,22.1
2016-03-01T03:58:29.574Z,22.1
2016-03-01T03:59:29.732Z,22.1
2016-03-01T04:00:29.688Z,22.1
2016-03-01T04:01:29.707Z,22.1
2016-03-01T04:02:29.756Z,22.1
2016-03-01T04:03:29.806Z,22.1
2016-03-01T04:04:30.043Z,22.1
2016-03-01T04:05:30.905Z,22.1
2016-03-01T04:06:30.954Z,22.1
2016-03-01T04:07:31.004Z,22.1
2016-03-01T04:08:31.053Z,22.1
2016-03-01T04:09:31.104Z,22.1
2016-03-01T04:10:31.148Z,22.1
2016-03-01T04:11:31.307Z,22.1
2016-03-01T04:12:31.357Z,22.1
2016-03-01T04:13:31.281Z,22.1
2016-03-01T04:14:31.393Z,22.1
2016-03-01T04:15:32.396Z,22.1
2016-03-01T04:16:32.429Z,22.1
2016-03-01T04:17:32.604Z,22.1
2016-03-01T04:18:32.545Z,22.1
2016-03-01T04:19:32.578Z,22.1
2016-03-01T04:20:32.629Z,22.1
2016-03-01T04:21:32.693Z,22.1
2016-03-01T04:22:32.712Z,22.1
2016-03-01T04:23:32.776Z,22.1
2016-03-01T04:24:32.982Z,22.1
2016-03-01T04:25:33.876Z,22.1
2016-03-01T04:26:34.051Z,22.1
2016-03-01T04:27:34.084Z,22.1
2016-03-01T04:28:34.009Z,22.1
2016-03-01T04:29:34.058Z,22.1
2016-03-01T04:30:34.108Z,22.1
2016-03-01T04:31:34.158Z,22.1
2016-03-01T04:32:34.208Z,22.1
2016-03-01T04:33:34.257Z,22.1
2016-03-01T04:34:34.353Z,22.1
2016-03-01T04:35:35.356Z,22.1
2016-03-01T04:36:35.405Z,22.1
2016-03-01T04:37:35.486Z,22.1
2016-03-01T04:38:35.505Z,22.1
2016-03-01T04:39:35.554Z,22.1
2016-03-01T04:40:35.713Z,22.1
2016-03-01T04:41:35.638Z,22.1
2016-03-01T04:42:35.812Z,22.1
2016-03-01T04:43:35.737Z,22.1
2016-03-01T04:44:35.833Z,22.1
2016-03-01T04:45:36.836Z,22.1
2016-03-01T04:46:36.885Z,22.1
2016-03-01T04:47:37.060Z,22.1
2016-03-01T04:48:36.984Z,22.1
2016-03-01T04:49:37.143Z,22.1
2016-03-01T04:50:37.067Z,22.1
2016-03-01T04:51:37.118Z,22.1
2016-03-01T04:52:37.182Z,22.1
2016-03-01T04:53:37.217Z,22.1
2016-03-01T04:54:37.312Z,22.1
2016-03-01T04:55:38.315Z,22.1
2016-03-01T04:56:38.365Z,22.1
2016-03-01T04:57:38.415Z,22.1
2016-03-01T04:58:38.449Z,22.1
2016-03-01T04:59:38.889Z,22.1
2016-03-01T05:00:38.798Z,22.1
2016-03-01T05:01:39.113Z,22.1
2016-03-01T05:02:39.163Z,22.1
2016-03-01T05:03:39.336Z,22.1
2016-03-01T05:04:39.309Z,22.1
2016-03-01T05:05:40.311Z,22.1
2016-03-01T05:06:40.345Z,22.1
2016-03-01T05:07:40.645Z,22.1
2016-03-01T05:08:40.944Z,22.1
2016-03-01T05:09:41.244Z,22.1
2016-03-01T05:10:41.543Z,22.1
2016-03-01T05:11:41.858Z,22.1
2016-03-01T05:12:42.268Z,22.1
2016-03-01T05:13:42.443Z,22.1
2016-03-01T05:14:42.804Z,22.1
2016-03-01T05:15:43.807Z,22.1
2016-03-01T05:16:44.263Z,22.1
2016-03-01T05:17:44.157Z,22.1
2016-03-01T05:18:44.470Z,22.1
2016-03-01T05:19:44.868Z,22.1
2016-03-01T05:20:45.031Z,22.1
2016-03-01T05:21:45.351Z,22.1
2016-03-01T05:22:45.625Z,22.1
2016-03-01T05:23:45.914Z,22.1
2016-03-01T05:24:46.380Z,22.1
2016-03-01T05:25:47.269Z,22.1
2016-03-01T05:26:47.565Z,22.1
2016-03-01T05:27:47.876Z,22.1
2016-03-01T05:28:47.906Z,22.1
2016-03-01T05:29:48.314Z,22.1
2016-03-01T05:30:48.502Z,22.1
2016-03-01T05:31:48.816Z,22.1
2016-03-01T05:32:49.129Z,22.1
2016-03-01T05:33:49.130Z,22.1
2016-03-01T05:34:49.492Z,22.1
2016-03-01T05:35:50.620Z,22.1
2016-03-01T05:36:50.794Z,22.1
2016-03-01T05:37:51.092Z,22.1
2016-03-01T05:38:51.391Z,22.1
2016-03-01T05:39:51.690Z,22.1
2016-03-01T05:40:51.991Z,22.1
2016-03-01T05:41:52.290Z,22.1
2016-03-01T05:42:52.589Z,22.1
2016-03-01T05:43:52.919Z,22.1
2016-03-01T05:44:53.266Z,22.1
2016-03-01T05:45:54.253Z,22.1
2016-03-01T05:46:54.553Z,22.1
2016-03-01T05:47:54.977Z,22.1
2016-03-01T05:48:55.277Z,22.1
2016-03-01T05:49:55.451Z,22.1
2016-03-01T05:50:55.766Z,22.1
2016-03-01T05:51:56.065Z,22.1
2016-03-01T05:52:56.365Z,22.1
2016-03-01T05:53:56.665Z,22.1
2016-03-01T05:54:57.136Z,22.1
2016-03-01T05:55:58.030Z,22.1
2016-03-01T05:56:58.329Z,22.1
2016-03-01T05:57:58.612Z,22.1
2016-03-01T05:58:58.929Z,22.1
2016-03-01T05:59:59.228Z,22.1
2016-03-01T06:00:59.527Z,22.1
2016-03-01T06:01:59.827Z,22.1
2016-03-01T06:03:00.126Z,22.1
2016-03-01T06:04:00.426Z,22.1
2016-03-01T06:05:00.898Z,22.1
2016-03-01T06:06:01.775Z,22.1
2016-03-01T06:07:02.340Z,22.1
2016-03-01T06:08:02.640Z,22.1
2016-03-01T06:09:02.939Z,22.1
2016-03-01T06:10:03.239Z,22.1
2016-03-01T06:11:03.788Z,22.1
2016-03-01T06:12:04.354Z,22.1
2016-03-01T06:13:04.903Z,22.1
2016-03-01T06:14:05.312Z,22.1
2016-03-01T06:15:05.800Z,22.1
2016-03-01T06:16:06.817Z,22.1
2016-03-01T06:17:07.117Z,22.1
2016-03-01T06:18:07.416Z,22.1
2016-03-01T06:19:07.825Z,22.1
2016-03-01T06:20:08.266Z,22.1
2016-03-01T06:21:08.675Z,22.1
2016-03-01T06:22:09.115Z,22.1
2016-03-01T06:23:09.665Z,22.1
2016-03-01T06:24:10.213Z,22.1
2016-03-01T06:25:10.842Z,22.1
2016-03-01T06:26:11.829Z,22.1
2016-03-01T06:27:12.504Z,22.1
2016-03-01T06:28:12.944Z,22.1
2016-03-01T06:29:13.618Z,22.1
2016-03-01T06:30:14.043Z,22.1
2016-03-01T06:31:14.608Z,22.1
2016-03-01T06:32:15.267Z,22.1
2016-03-01T06:33:15.707Z,22.1
2016-03-01T06:34:16.257Z,22.1
2016-03-01T06:35:16.618Z,22.1
2016-03-01T06:36:17.621Z,22.1
2016-03-01T06:37:18.170Z,22.1
2016-03-01T06:38:18.471Z,22.1
2016-03-01T06:39:19.020Z,22.1
2016-03-01T06:40:19.601Z,22.1
2016-03-01T06:41:20.244Z,22.1
2016-03-01T06:42:20.684Z,22.1
2016-03-01T06:43:21.234Z,22.1
2016-03-01T06:44:21.800Z,22.1
2016-03-01T06:45:22.395Z,22.1
2016-03-01T06:46:23.398Z,22.1
2016-03-01T06:47:23.964Z,22.1
2016-03-01T06:48:24.513Z,22.1
2016-03-01T06:49:25.065Z,22.1
2016-03-01T06:50:25.615Z,22.1
2016-03-01T06:51:26.180Z,22.1
2016-03-01T06:52:26.729Z,22.1
2016-03-01T06:53:27.029Z,22.1
2016-03-01T06:54:27.579Z,22.1
2016-03-01T06:55:28.191Z,22.1
2016-03-01T06:56:29.194Z,22.1
2016-03-01T06:57:29.743Z,22.1
2016-03-01T06:58:30.293Z,22.1
2016-03-01T06:59:30.858Z,22.1
2016-03-01T07:00:31.423Z,22.1
2016-03-01T07:01:31.957Z,22.1
2016-03-01T07:02:32.632Z,22.1
2016-03-01T07:03:33.072Z,22.1
2016-03-01T07:04:33.621Z,22.1
2016-03-01T07:05:34.234Z,22.1
2016-03-01T07:06:35.236Z,22.1
2016-03-01T07:07:35.801Z,22.1
2016-03-01T07:08:36.335Z,22.1
2016-03-01T07:09:37.026Z,22.1
2016-03-01T07:10:37.450Z,22.1
2016-03-01T07:11:38.000Z,22.1
2016-03-01T07:12:38.549Z,22.1
2016-03-01T07:13:39.099Z,22.1
2016-03-01T07:14:39.664Z,22.1
2016-03-01T07:15:40.386Z,22.2
2016-03-01T07:16:41.278Z,22.1
2016-03-01T07:17:41.938Z,22.2
2016-03-01T07:18:42.503Z,22.1
2016-03-01T07:19:43.193Z,22.2
2016-03-01T07:20:43.992Z,22.1
2016-03-01T07:21:44.824Z,22.2
2016-03-01T07:22:45.623Z,22.1
2016-03-01T07:23:46.422Z,22.1
2016-03-01T07:24:47.222Z,22.1
2016-03-01T07:25:48.084Z,22.2
2016-03-01T07:26:49.213Z,22.1
2016-03-01T07:27:50.261Z,22.1
2016-03-01T07:28:51.202Z,22.2
2016-03-01T07:29:52.266Z,22.2
2016-03-01T07:30:53.332Z,22.1
2016-03-01T07:31:54.381Z,22.1
2016-03-01T07:32:55.446Z,22.1
2016-03-01T07:33:56.512Z,22.1
2016-03-01T07:34:57.609Z,22.1
2016-03-01T07:35:58.689Z,22.1
2016-03-01T07:36:59.692Z,22.1
2016-03-01T07:38:00.742Z,22.1
2016-03-01T07:39:01.806Z,22.1
2016-03-01T07:40:02.872Z,22.2
2016-03-01T07:41:03.937Z,22.2
2016-03-01T07:42:04.987Z,22.1
2016-03-01T07:43:06.177Z,22.1
2016-03-01T07:44:07.101Z,22.1
2016-03-01T07:45:08.166Z,22.1
2016-03-01T07:46:09.294Z,22.2
2016-03-01T07:47:10.297Z,22.2
2016-03-01T07:48:11.331Z,22.1
2016-03-01T07:49:12.412Z,22.1
2016-03-01T07:50:13.461Z,22.1
2016-03-01T07:51:14.635Z,22.1
2016-03-01T07:52:15.576Z,22.1
2016-03-01T07:53:16.672Z,22.1
2016-03-01T07:54:17.691Z,22.1
2016-03-01T07:55:18.771Z,22.1
2016-03-01T07:56:19.883Z,22.1
2016-03-01T07:57:20.871Z,22.1
2016-03-01T07:58:21.935Z,22.1
2016-03-01T07:59:23.017Z,22.2
2016-03-01T08:00:24.176Z,22.2
2016-03-01T08:01:25.131Z,22.2
2016-03-01T08:02:26.181Z,22.2
2016-03-01T08:03:27.246Z,22.2
2016-03-01T08:04:28.579Z,22.2
2016-03-01T08:05:29.863Z,22.2
2016-03-01T08:06:31.257Z,22.2
2016-03-01T08:07:32.243Z,22.2
2016-03-01T08:08:33.559Z,22.3
2016-03-01T08:09:34.874Z,22.2
2016-03-01T08:10:36.190Z,22.2
2016-03-01T08:11:37.879Z,22.2
2016-03-01T08:12:39.336Z,22.2
2016-03-01T08:13:40.901Z,22.2
2016-03-01T08:14:42.466Z,22.3
2016-03-01T08:15:44.031Z,22.2
2016-03-01T08:16:45.658Z,22.2
2016-03-01T08:17:46.771Z,22.2
2016-03-01T08:18:48.227Z,22.2
2016-03-01T08:19:49.792Z,22.2
2016-03-01T08:20:51.373Z,22.2
2016-03-01T08:21:53.047Z,22.2
2016-03-01T08:22:54.488Z,22.2
2016-03-01T08:23:56.052Z,22.2
2016-03-01T08:24:57.649Z,22.3
2016-03-01T08:25:59.199Z,22.3
2016-03-01T08:27:00.810Z,22.3
2016-03-01T08:28:01.813Z,22.3
2016-03-01T08:29:03.394Z,22.4
2016-03-01T08:30:04.959Z,22.5
2016-03-01T08:31:06.649Z,22.5
2016-03-01T08:32:08.121Z,22.5
2016-03-01T08:33:09.655Z,22.7
2016-03-01T08:34:11.220Z,22.8
2016-03-01T08:35:12.535Z,22.9
2016-03-01T08:36:13.851Z,22.9
2016-03-01T08:37:14.963Z,23
2016-03-01T08:38:15.965Z,23.1
2016-03-01T08:39:17.030Z,23.2
2016-03-01T08:40:17.830Z,23.3
2016-03-01T08:41:18.645Z,23.4
2016-03-01T08:42:19.304Z,23.4
2016-03-01T08:43:19.838Z,23.6
2016-03-01T08:44:20.044Z,23.7
2016-03-01T08:45:20.093Z,23.8
2016-03-01T08:46:20.267Z,23.9
2016-03-01T08:47:20.240Z,24
2016-03-01T08:48:21.242Z,24.1
2016-03-01T08:49:20.775Z,24.1
2016-03-01T08:50:20.435Z,24.2
2016-03-01T08:51:19.578Z,24.3
2016-03-01T08:52:18.987Z,24.4
2016-03-01T08:53:18.006Z,24.5
2016-03-01T08:54:16.947Z,24.5
2016-03-01T08:55:15.699Z,24.6
2016-03-01T08:56:14.482Z,24.6
2016-03-01T08:57:13.314Z,24.7
2016-03-01T08:58:14.316Z,24.8
2016-03-01T08:59:12.835Z,24.8
2016-03-01T09:00:11.352Z,24.9
2016-03-01T09:01:09.871Z,24.9
2016-03-01T09:02:08.155Z,24.9
2016-03-01T09:03:06.407Z,25
2016-03-01T09:04:04.676Z,25
2016-03-01T09:05:02.694Z,25.1
2016-03-01T09:06:00.696Z,25.1
2016-03-01T09:06:58.793Z,25.1
2016-03-01T09:07:59.780Z,25.2
2016-03-01T09:08:57.782Z,25.3
2016-03-01T09:09:55.567Z,25.3
2016-03-01T09:10:57.116Z,25.3
2016-03-01T09:11:58.682Z,25.3
2016-03-01T09:12:59.715Z,25.3
2016-03-01T09:14:00.765Z,25.3
2016-03-01T09:15:01.581Z,25.2
2016-03-01T09:16:02.364Z,25.1
2016-03-01T09:17:03.336Z,25
2016-03-01T09:18:04.228Z,24.9
2016-03-01T09:19:04.779Z,24.8
2016-03-01T09:20:05.312Z,24.7
2016-03-01T09:21:05.862Z,24.5
2016-03-01T09:22:06.677Z,24.3
2016-03-01T09:23:07.586Z,24.2
2016-03-01T09:24:08.277Z,24.1
2016-03-01T09:25:09.325Z,23.9
2016-03-01T09:26:10.376Z,23.7
2016-03-01T09:27:11.503Z,23.6
2016-03-01T09:28:12.505Z,23.4
2016-03-01T09:29:14.040Z,23.3
2016-03-01T09:30:11.839Z,23.2
2016-03-01T09:31:09.842Z,23.1
2016-03-01T09:32:08.376Z,23
2016-03-01T09:33:06.894Z,22.9
2016-03-01T09:34:05.679Z,22.8
2016-03-01T09:35:04.696Z,22.7
2016-03-01T09:36:03.980Z,22.7
2016-03-01T09:37:03.577Z,22.6
2016-03-01T09:38:04.580Z,22.6
2016-03-01T09:39:04.504Z,22.5
2016-03-01T09:40:04.163Z,22.5
2016-03-01T09:41:04.213Z,22.5
2016-03-01T09:42:04.278Z,22.5
2016-03-01T09:44:04.580Z,22.5
2016-03-01T09:45:04.879Z,22.4
2016-03-01T09:46:05.445Z,22.4
2016-03-01T09:47:06.041Z,22.4
2016-03-01T09:48:07.045Z,22.4
2016-03-01T09:49:07.594Z,22.4
2016-03-01T09:50:08.267Z,22.4
2016-03-01T09:51:08.708Z,22.4
2016-03-01T09:52:09.523Z,22.4
2016-03-01T09:54:11.138Z,22.4
2016-03-01T09:55:11.922Z,22.4
2016-03-01T09:56:12.722Z,22.4
2016-03-01T09:57:13.583Z,22.4
2016-03-01T09:58:14.603Z,22.4
2016-03-01T09:59:15.402Z,22.4
2016-03-01T10:00:16.202Z,22.4
2016-03-01T10:01:17.001Z,22.4
2016-03-01T10:02:17.816Z,22.4
2016-03-01T10:03:18.616Z,22.4
2016-03-01T10:04:19.696Z,22.4
2016-03-01T10:05:20.730Z,22.4
2016-03-01T10:06:21.811Z,22.4
2016-03-01T10:07:22.908Z,22.4
2016-03-01T10:08:23.910Z,22.4
2016-03-01T10:09:24.976Z,22.4
2016-03-01T10:10:26.041Z,22.4
2016-03-01T10:11:27.106Z,22.4
2016-03-01T10:12:28.140Z,22.5
2016-03-01T10:13:29.205Z,22.4
2016-03-01T10:14:30.273Z,22.4
2016-03-01T10:15:31.322Z,22.4
2016-03-01T10:16:32.403Z,22.5
2016-03-01T10:17:33.500Z,22.4
2016-03-01T10:18:34.517Z,22.5
2016-03-01T10:19:35.678Z,22.5
2016-03-01T10:20:36.617Z,22.5
2016-03-01T10:21:37.682Z,22.5
2016-03-01T10:22:38.731Z,22.5
2016-03-01T10:23:39.797Z,22.5
2016-03-01T10:24:40.862Z,22.5
2016-03-01T10:25:41.911Z,22.5
2016-03-01T10:26:42.977Z,22.5
2016-03-01T10:27:44.199Z,22.5
2016-03-01T10:28:45.091Z,22.5
2016-03-01T10:29:46.141Z,22.5
2016-03-01T10:30:47.207Z,22.5
2016-03-01T10:31:48.272Z,22.5
2016-03-01T10:32:49.321Z,22.5
2016-03-01T10:33:50.386Z,22.5
2016-03-01T10:34:51.436Z,22.5
2016-03-01T10:35:52.501Z,22.5
2016-03-01T10:36:53.566Z,22.5
2016-03-01T10:37:54.678Z,22.5
2016-03-01T10:38:55.682Z,22.5
2016-03-01T10:39:56.746Z,22.5
2016-03-01T10:40:57.812Z,22.5
2016-03-01T10:41:58.862Z,22.5
2016-03-01T10:42:59.910Z,22.5
2016-03-01T10:44:00.976Z,22.5
2016-03-01T10:45:02.041Z,22.5
2016-03-01T10:46:03.091Z,22.5
2016-03-01T10:47:04.187Z,22.5
2016-03-01T10:48:05.267Z,22.5
2016-03-01T10:49:06.271Z,22.5
2016-03-01T10:50:07.336Z,22.5
2016-03-01T10:51:08.651Z,22.5
2016-03-01T10:52:09.701Z,22.5
2016-03-01T10:53:10.766Z,22.5
2016-03-01T10:54:11.814Z,22.5
2016-03-01T10:55:12.880Z,22.5
2016-03-01T10:56:13.945Z,22.5
2016-03-01T10:57:15.011Z,22.5
2016-03-01T10:58:16.122Z,22.5
2016-03-01T10:59:17.141Z,22.4
2016-03-01T11:00:16.925Z,22.3
2016-03-01T11:01:17.974Z,22.2
2016-03-01T11:02:16.791Z,22.2
2016-03-01T11:03:18.339Z,22.3
2016-03-01T11:04:18.624Z,22.3
2016-03-01T11:05:18.141Z,22.3
2016-03-01T11:06:17.191Z,22.4
2016-03-01T11:07:15.710Z,22.4
2016-03-01T11:08:13.790Z,22.4
2016-03-01T11:09:14.793Z,22.5
2016-03-01T11:10:15.843Z,22.5
2016-03-01T11:11:16.643Z,22.5
2016-03-01T11:12:17.192Z,22.5
2016-03-01T11:13:17.241Z,22.6
2016-03-01T11:14:17.057Z,22.6
2016-03-01T11:15:16.590Z,22.6
2016-03-01T11:16:15.874Z,22.6
2016-03-01T11:17:14.893Z,22.7
2016-03-01T11:18:13.739Z,22.7
2016-03-01T11:19:14.742Z,22.7
2016-03-01T11:20:13.275Z,22.7
2016-03-01T11:21:11.670Z,22.7
2016-03-01T11:22:09.797Z,22.7
2016-03-01T11:23:07.940Z,22.7
2016-03-01T11:24:05.849Z,22.7
2016-03-01T11:25:03.617Z,22.7
2016-03-01T11:26:01.369Z,22.7
2016-03-01T11:27:02.936Z,22.7
2016-03-01T11:28:04.688Z,22.7
2016-03-01T11:29:05.691Z,22.7
2016-03-01T11:30:06.880Z,22.7
2016-03-01T11:31:08.321Z,22.7
2016-03-01T11:32:09.261Z,22.7
2016-03-01T11:33:10.326Z,22.7
2016-03-01T11:34:11.252Z,22.7
2016-03-01T11:35:11.941Z,22.6
2016-03-01T11:36:12.756Z,22.6
2016-03-01T11:37:13.555Z,22.6
2016-03-01T11:38:14.168Z,22.6
2016-03-01T11:39:15.171Z,22.6
2016-03-01T11:40:15.720Z,22.6
2016-03-01T11:41:16.020Z,22.6
2016-03-01T11:42:16.319Z,22.5
2016-03-01T11:43:16.743Z,22.6
2016-03-01T11:44:16.919Z,22.5
2016-03-01T11:45:17.234Z,22.5
2016-03-01T11:46:17.518Z,22.5
2016-03-01T11:47:17.567Z,22.5
2016-03-01T11:48:17.789Z,22.5
2016-03-01T11:49:18.792Z,22.5
2016-03-01T11:50:18.840Z,22.5
2016-03-01T11:51:18.531Z,22.5
2016-03-01T11:52:18.315Z,22.5
2016-03-01T11:53:18.098Z,22.4
2016-03-01T11:54:18.009Z,22.5
2016-03-01T11:55:17.808Z,22.5
2016-03-01T11:56:17.482Z,22.5
2016-03-01T11:57:17.141Z,22.5
2016-03-01T11:58:16.628Z,22.5
2016-03-01T11:59:17.755Z,22.4
2016-03-01T12:00:17.164Z,22.4
2016-03-01T12:01:16.713Z,22.4
2016-03-01T12:02:15.998Z,22.4
2016-03-01T12:03:15.282Z,22.4
2016-03-01T12:04:14.566Z,22.4
2016-03-01T12:05:13.866Z,22.4
2016-03-01T12:06:13.150Z,22.4
2016-03-01T12:07:12.434Z,22.4
2016-03-01T12:08:11.890Z,22.4
2016-03-01T12:09:12.783Z,22.4
2016-03-01T12:10:11.817Z,22.4
2016-03-01T12:11:10.960Z,22.4
2016-03-01T12:12:09.886Z,22.4
2016-03-01T12:13:09.028Z,22.3
2016-03-01T12:14:07.953Z,22.4
2016-03-01T12:15:06.988Z,22.4
2016-03-01T12:16:06.005Z,22.3
2016-03-01T12:17:04.930Z,22.3
2016-03-01T12:18:03.636Z,22.4
2016-03-01T12:19:04.638Z,22.4
2016-03-01T12:20:03.422Z,22.4
2016-03-01T12:21:02.206Z,22.4
2016-03-01T12:22:00.975Z,22.4
2016-03-01T12:22:59.884Z,22.4
2016-03-01T12:23:58.652Z,22.3
2016-03-01T12:24:57.311Z,22.3
2016-03-01T12:25:56.251Z,22.4
2016-03-01T12:26:54.769Z,22.4
2016-03-01T12:27:53.350Z,22.4
2016-03-01T12:28:54.353Z,22.3
2016-03-01T12:29:52.761Z,22.3
2016-03-01T12:30:51.405Z,22.3
2016-03-01T12:31:49.939Z,22.3
2016-03-01T12:32:48.348Z,22.3
2016-03-01T12:33:46.992Z,22.3
2016-03-01T12:34:45.150Z,22.3
2016-03-01T12:35:43.419Z,22.3
2016-03-01T12:36:41.702Z,22.3
2016-03-01T12:37:40.034Z,22.3
2016-03-01T12:38:41.036Z,22.3
2016-03-01T12:39:39.444Z,22.3
2016-03-01T12:40:37.698Z,22.3
2016-03-01T12:41:35.856Z,22.3
2016-03-01T12:42:34.125Z,22.3
2016-03-01T12:43:32.534Z,22.4
2016-03-01T12:44:30.784Z,22.3
2016-03-01T12:45:28.944Z,22.3
2016-03-01T12:46:27.336Z,22.3
2016-03-01T12:47:25.558Z,22.3
2016-03-01T12:48:26.670Z,22.3
2016-03-01T12:49:24.954Z,22.3
2016-03-01T12:50:23.253Z,22.3
2016-03-01T12:51:21.130Z,22.3
2016-03-01T12:52:19.165Z,22.3
2016-03-01T12:53:17.168Z,22.3
2016-03-01T12:54:15.185Z,22.3
2016-03-01T12:55:13.329Z,22.3
2016-03-01T12:56:11.254Z,22.3
2016-03-01T12:57:09.319Z,22.3
2016-03-01T12:58:10.321Z,22.3
2016-03-01T12:59:08.339Z,22.3
2016-03-01T13:00:06.484Z,22.3
2016-03-01T13:01:04.392Z,22.3
2016-03-01T13:02:02.410Z,22.3
2016-03-01T13:03:00.538Z,22.3
2016-03-01T13:03:58.197Z,22.3
2016-03-01T13:04:56.106Z,22.3
2016-03-01T13:05:53.734Z,22.3
2016-03-01T13:06:51.564Z,22.3
2016-03-01T13:07:52.567Z,22.3
2016-03-01T13:08:50.336Z,22.3
2016-03-01T13:09:48.104Z,22.3
2016-03-01T13:10:45.872Z,22.3
2016-03-01T13:11:43.641Z,22.3
2016-03-01T13:12:41.518Z,22.3
2016-03-01T13:13:39.162Z,22.3
2016-03-01T13:14:37.053Z,22.3
2016-03-01T13:15:34.712Z,22.3
2016-03-01T13:16:32.527Z,22.3
2016-03-01T13:17:33.530Z,22.3
2016-03-01T13:18:31.297Z,22.3
2016-03-01T13:19:29.066Z,22.3
2016-03-01T13:20:26.833Z,22.3
2016-03-01T13:21:24.603Z,22.3